sensor_id;sensor_type;location;lat;lon;timestamp;temperature;humidity
15596;DHT22;7898;48.658;9.068;2022-08-18T00:02:01;18.00;99.90
15596;DHT22;7898;48.658;9.068;2022-08-18T00:04:30;17.90;99.90
15596;DHT22;7898;48.658;9.068;2022-08-18T00:06:57;17.90;99.90
15596;DHT22;7898;48.658;9.068;2022-08-18T00:09:24;17.90;99.90
15596;DHT22;7898;48.658;9.068;2022-08-18T00:11:51;17.90;99.90
15596;DHT22;7898;48.658;9.068;2022-08-18T00:14:20;17.90;99.90
15596;DHT22;7898;48.658;9.068;2022-08-18T00:16:48;17.90;99.90
15596;DHT22;7898;48.658;9.068;2022-08-18T00:19:15;17.90;99.90
15596;DHT22;7898;48.658;9.068;2022-08-18T00:21:43;17.90;99.90
15596;DHT22;7898;48.658;9.068;2022-08-18T00:24:10;17.90;99.90
15596;DHT22;7898;48.658;9.068;2022-08-18T00:26:37;17.90;99.90
15596;DHT22;7898;48.658;9.068;2022-08-18T00:29:04;17.90;99.90
15596;DHT22;7898;48.658;9.068;2022-08-18T00:31:31;17.80;99.90
15596;DHT22;7898;48.658;9.068;2022-08-18T00:33:58;17.80;99.90
15596;DHT22;7898;48.658;9.068;2022-08-18T00:36:25;17.80;99.90
15596;DHT22;7898;48.658;9.068;2022-08-18T00:38:53;17.80;99.90
15596;DHT22;7898;48.658;9.068;2022-08-18T00:41:20;17.90;99.90
15596;DHT22;7898;48.658;9.068;2022-08-18T00:43:51;17.80;99.90
15596;DHT22;7898;48.658;9.068;2022-08-18T00:46:21;17.80;99.90
15596;DHT22;7898;48.658;9.068;2022-08-18T00:48:48;17.80;99.90
15596;DHT22;7898;48.658;9.068;2022-08-18T00:51:20;17.70;99.90
15596;DHT22;7898;48.658;9.068;2022-08-18T00:53:51;17.70;99.90
15596;DHT22;7898;48.658;9.068;2022-08-18T00:56:22;17.70;99.90
15596;DHT22;7898;48.658;9.068;2022-08-18T00:58:54;17.70;99.90
15596;DHT22;7898;48.658;9.068;2022-08-18T01:01:24;17.70;99.90
15596;DHT22;7898;48.658;9.068;2022-08-18T01:03:57;17.60;99.90
15596;DHT22;7898;48.658;9.068;2022-08-18T01:06:29;17.70;99.90
15596;DHT22;7898;48.658;9.068;2022-08-18T01:08:59;17.80;99.90
15596;DHT22;7898;48.658;9.068;2022-08-18T01:11:28;17.70;99.90
15596;DHT22;7898;48.658;9.068;2022-08-18T01:13:56;17.70;99.90
15596;DHT22;7898;48.658;9.068;2022-08-18T01:16:23;17.70;99.90
15596;DHT22;7898;48.658;9.068;2022-08-18T01:19:07;17.70;99.90
15596;DHT22;7898;48.658;9.068;2022-08-18T01:21:58;17.60;99.90
15596;DHT22;7898;48.658;9.068;2022-08-18T01:24:32;17.60;99.90
15596;DHT22;7898;48.658;9.068;2022-08-18T01:27:17;17.50;99.90
15596;DHT22;7898;48.658;9.068;2022-08-18T01:29:45;17.50;99.90
15596;DHT22;7898;48.658;9.068;2022-08-18T01:32:14;17.50;99.90
15596;DHT22;7898;48.658;9.068;2022-08-18T01:34:45;17.50;99.90
15596;DHT22;7898;48.658;9.068;2022-08-18T01:37:13;17.60;99.90
15596;DHT22;7898;48.658;9.068;2022-08-18T01:39:42;17.60;99.90
15596;DHT22;7898;48.658;9.068;2022-08-18T01:42:09;17.60;99.90
15596;DHT22;7898;48.658;9.068;2022-08-18T01:44:36;17.60;99.90
15596;DHT22;7898;48.658;9.068;2022-08-18T01:47:05;17.60;99.90
15596;DHT22;7898;48.658;9.068;2022-08-18T01:49:32;17.60;99.90
15596;DHT22;7898;48.658;9.068;2022-08-18T01:51:59;17.60;99.90
15596;DHT22;7898;48.658;9.068;2022-08-18T01:54:25;17.50;99.90
15596;DHT22;7898;48.658;9.068;2022-08-18T01:56:56;17.50;99.90
15596;DHT22;7898;48.658;9.068;2022-08-18T01:59:23;17.50;99.90
15596;DHT22;7898;48.658;9.068;2022-08-18T02:01:50;17.50;99.90
15596;DHT22;7898;48.658;9.068;2022-08-18T02:04:26;17.50;99.90
15596;DHT22;7898;48.658;9.068;2022-08-18T02:06:54;17.60;99.90
15596;DHT22;7898;48.658;9.068;2022-08-18T02:09:22;17.50;99.90
15596;DHT22;7898;48.658;9.068;2022-08-18T02:11:49;17.40;99.90
15596;DHT22;7898;48.658;9.068;2022-08-18T02:14:17;17.40;99.90
15596;DHT22;7898;48.658;9.068;2022-08-18T02:16:44;17.40;99.90
15596;DHT22;7898;48.658;9.068;2022-08-18T02:19:11;17.30;99.90
15596;DHT22;7898;48.658;9.068;2022-08-18T02:21:39;17.30;99.90
15596;DHT22;7898;48.658;9.068;2022-08-18T02:24:06;17.30;99.90
15596;DHT22;7898;48.658;9.068;2022-08-18T02:26:33;17.30;99.90
15596;DHT22;7898;48.658;9.068;2022-08-18T02:29:00;17.30;99.90
15596;DHT22;7898;48.658;9.068;2022-08-18T02:31:28;17.30;99.90
15596;DHT22;7898;48.658;9.068;2022-08-18T02:33:55;17.30;99.90
15596;DHT22;7898;48.658;9.068;2022-08-18T02:36:23;17.30;99.90
15596;DHT22;7898;48.658;9.068;2022-08-18T02:38:50;17.30;99.90
15596;DHT22;7898;48.658;9.068;2022-08-18T02:41:17;17.30;99.90
15596;DHT22;7898;48.658;9.068;2022-08-18T02:43:45;17.40;99.90
15596;DHT22;7898;48.658;9.068;2022-08-18T02:46:13;17.40;99.90
15596;DHT22;7898;48.658;9.068;2022-08-18T02:48:41;17.40;99.90
15596;DHT22;7898;48.658;9.068;2022-08-18T02:51:10;17.40;99.90
15596;DHT22;7898;48.658;9.068;2022-08-18T02:53:38;17.30;99.90
15596;DHT22;7898;48.658;9.068;2022-08-18T02:56:09;17.30;99.90
15596;DHT22;7898;48.658;9.068;2022-08-18T02:58:53;17.30;99.90
15596;DHT22;7898;48.658;9.068;2022-08-18T03:01:21;17.30;99.90
15596;DHT22;7898;48.658;9.068;2022-08-18T03:03:49;17.30;99.90
15596;DHT22;7898;48.658;9.068;2022-08-18T03:06:17;17.30;99.90
15596;DHT22;7898;48.658;9.068;2022-08-18T03:08:45;17.30;99.90
15596;DHT22;7898;48.658;9.068;2022-08-18T03:11:13;17.30;99.90
15596;DHT22;7898;48.658;9.068;2022-08-18T03:13:41;17.30;99.90
15596;DHT22;7898;48.658;9.068;2022-08-18T03:16:08;17.40;99.90
15596;DHT22;7898;48.658;9.068;2022-08-18T03:18:35;17.30;99.90
15596;DHT22;7898;48.658;9.068;2022-08-18T03:21:06;17.30;99.90
15596;DHT22;7898;48.658;9.068;2022-08-18T03:23:34;17.30;99.90
15596;DHT22;7898;48.658;9.068;2022-08-18T03:26:05;17.30;99.90
15596;DHT22;7898;48.658;9.068;2022-08-18T03:28:33;17.30;99.90
15596;DHT22;7898;48.658;9.068;2022-08-18T03:31:00;17.30;99.90
15596;DHT22;7898;48.658;9.068;2022-08-18T03:33:27;17.30;99.90
15596;DHT22;7898;48.658;9.068;2022-08-18T03:35:53;17.20;99.90
15596;DHT22;7898;48.658;9.068;2022-08-18T03:38:22;17.20;99.90
15596;DHT22;7898;48.658;9.068;2022-08-18T03:40:50;17.20;99.90
15596;DHT22;7898;48.658;9.068;2022-08-18T03:43:17;17.20;99.90
15596;DHT22;7898;48.658;9.068;2022-08-18T03:45:44;17.20;99.90
15596;DHT22;7898;48.658;9.068;2022-08-18T03:48:11;17.20;99.90
15596;DHT22;7898;48.658;9.068;2022-08-18T03:50:38;17.20;99.90
15596;DHT22;7898;48.658;9.068;2022-08-18T03:53:05;17.20;99.90
15596;DHT22;7898;48.658;9.068;2022-08-18T03:55:33;17.30;99.90
15596;DHT22;7898;48.658;9.068;2022-08-18T03:58:01;17.30;99.90
15596;DHT22;7898;48.658;9.068;2022-08-18T04:00:29;17.20;99.90
15596;DHT22;7898;48.658;9.068;2022-08-18T04:02:56;17.20;99.90
15596;DHT22;7898;48.658;9.068;2022-08-18T04:05:24;17.20;99.90
15596;DHT22;7898;48.658;9.068;2022-08-18T04:07:51;17.20;99.90
15596;DHT22;7898;48.658;9.068;2022-08-18T04:10:18;17.10;99.90
15596;DHT22;7898;48.658;9.068;2022-08-18T04:12:47;17.10;99.90
15596;DHT22;7898;48.658;9.068;2022-08-18T04:15:14;17.10;99.90
15596;DHT22;7898;48.658;9.068;2022-08-18T04:17:41;17.10;99.90
15596;DHT22;7898;48.658;9.068;2022-08-18T04:20:11;17.10;99.90
15596;DHT22;7898;48.658;9.068;2022-08-18T04:22:38;17.10;99.90
15596;DHT22;7898;48.658;9.068;2022-08-18T04:25:06;17.10;99.90
15596;DHT22;7898;48.658;9.068;2022-08-18T04:27:35;17.10;99.90
15596;DHT22;7898;48.658;9.068;2022-08-18T04:30:06;17.10;99.90
15596;DHT22;7898;48.658;9.068;2022-08-18T04:32:33;17.10;99.90
15596;DHT22;7898;48.658;9.068;2022-08-18T04:35:00;17.10;99.90
15596;DHT22;7898;48.658;9.068;2022-08-18T04:37:27;17.20;99.90
15596;DHT22;7898;48.658;9.068;2022-08-18T04:39:57;17.20;99.90
15596;DHT22;7898;48.658;9.068;2022-08-18T04:42:24;17.20;99.90
15596;DHT22;7898;48.658;9.068;2022-08-18T04:44:51;17.20;99.90
15596;DHT22;7898;48.658;9.068;2022-08-18T04:47:19;17.20;99.90
15596;DHT22;7898;48.658;9.068;2022-08-18T04:49:47;17.30;99.90
15596;DHT22;7898;48.658;9.068;2022-08-18T04:52:15;17.30;99.90
15596;DHT22;7898;48.658;9.068;2022-08-18T04:55:00;17.30;99.90
15596;DHT22;7898;48.658;9.068;2022-08-18T04:57:28;17.40;99.90
15596;DHT22;7898;48.658;9.068;2022-08-18T04:59:58;17.40;99.90
15596;DHT22;7898;48.658;9.068;2022-08-18T05:02:26;17.40;99.90
15596;DHT22;7898;48.658;9.068;2022-08-18T05:04:53;17.50;99.90
15596;DHT22;7898;48.658;9.068;2022-08-18T05:07:21;17.40;99.90
15596;DHT22;7898;48.658;9.068;2022-08-18T05:09:48;17.40;99.90
15596;DHT22;7898;48.658;9.068;2022-08-18T05:12:16;17.50;99.90
15596;DHT22;7898;48.658;9.068;2022-08-18T05:14:44;17.50;99.90
15596;DHT22;7898;48.658;9.068;2022-08-18T05:17:12;17.60;99.90
15596;DHT22;7898;48.658;9.068;2022-08-18T05:19:40;17.70;99.90
15596;DHT22;7898;48.658;9.068;2022-08-18T05:22:09;17.80;99.90
15596;DHT22;7898;48.658;9.068;2022-08-18T05:24:36;17.80;99.90
15596;DHT22;7898;48.658;9.068;2022-08-18T05:27:04;17.90;99.90
15596;DHT22;7898;48.658;9.068;2022-08-18T05:29:32;18.00;99.90
15596;DHT22;7898;48.658;9.068;2022-08-18T05:32:01;18.10;99.90
15596;DHT22;7898;48.658;9.068;2022-08-18T05:34:31;18.20;99.90
15596;DHT22;7898;48.658;9.068;2022-08-18T05:37:10;18.30;99.90
15596;DHT22;7898;48.658;9.068;2022-08-18T05:39:56;18.40;99.90
15596;DHT22;7898;48.658;9.068;2022-08-18T05:42:26;18.50;99.90
15596;DHT22;7898;48.658;9.068;2022-08-18T05:44:56;18.60;99.90
15596;DHT22;7898;48.658;9.068;2022-08-18T05:47:24;18.70;99.90
15596;DHT22;7898;48.658;9.068;2022-08-18T05:49:53;18.60;99.90
15596;DHT22;7898;48.658;9.068;2022-08-18T05:52:27;18.60;99.90
15596;DHT22;7898;48.658;9.068;2022-08-18T05:55:00;18.60;99.90
15596;DHT22;7898;48.658;9.068;2022-08-18T05:57:48;18.50;99.90
15596;DHT22;7898;48.658;9.068;2022-08-18T06:00:17;18.50;99.90
15596;DHT22;7898;48.658;9.068;2022-08-18T06:02:49;18.50;99.90
15596;DHT22;7898;48.658;9.068;2022-08-18T06:05:22;18.60;99.90
15596;DHT22;7898;48.658;9.068;2022-08-18T06:07:57;18.50;99.90
15596;DHT22;7898;48.658;9.068;2022-08-18T06:10:24;18.60;99.90
15596;DHT22;7898;48.658;9.068;2022-08-18T06:12:54;18.60;99.90
15596;DHT22;7898;48.658;9.068;2022-08-18T06:15:26;18.60;99.90
15596;DHT22;7898;48.658;9.068;2022-08-18T06:18:17;18.70;99.90
15596;DHT22;7898;48.658;9.068;2022-08-18T06:21:09;18.70;99.90
15596;DHT22;7898;48.658;9.068;2022-08-18T06:23:44;18.70;99.90
15596;DHT22;7898;48.658;9.068;2022-08-18T06:26:18;18.70;99.90
15596;DHT22;7898;48.658;9.068;2022-08-18T06:28:57;18.80;99.90
15596;DHT22;7898;48.658;9.068;2022-08-18T06:31:32;18.80;99.90
15596;DHT22;7898;48.658;9.068;2022-08-18T06:34:14;18.80;99.90
15596;DHT22;7898;48.658;9.068;2022-08-18T06:36:47;18.80;99.90
15596;DHT22;7898;48.658;9.068;2022-08-18T06:39:23;18.80;99.90
15596;DHT22;7898;48.658;9.068;2022-08-18T06:41:52;18.90;99.90
15596;DHT22;7898;48.658;9.068;2022-08-18T06:44:23;19.00;99.90
15596;DHT22;7898;48.658;9.068;2022-08-18T06:46:55;19.10;99.90
15596;DHT22;7898;48.658;9.068;2022-08-18T06:49:34;19.10;99.90
15596;DHT22;7898;48.658;9.068;2022-08-18T06:52:17;19.20;99.90
15596;DHT22;7898;48.658;9.068;2022-08-18T06:54:46;19.30;99.90
15596;DHT22;7898;48.658;9.068;2022-08-18T06:57:22;19.30;99.90
15596;DHT22;7898;48.658;9.068;2022-08-18T06:59:54;19.50;99.90
15596;DHT22;7898;48.658;9.068;2022-08-18T07:02:23;19.50;99.90
15596;DHT22;7898;48.658;9.068;2022-08-18T07:04:59;19.50;99.90
15596;DHT22;7898;48.658;9.068;2022-08-18T07:07:33;19.50;99.90
15596;DHT22;7898;48.658;9.068;2022-08-18T07:10:04;19.60;99.90
15596;DHT22;7898;48.658;9.068;2022-08-18T07:12:31;19.50;99.90
15596;DHT22;7898;48.658;9.068;2022-08-18T07:15:01;19.50;99.90
15596;DHT22;7898;48.658;9.068;2022-08-18T07:17:32;19.40;99.90
15596;DHT22;7898;48.658;9.068;2022-08-18T07:20:04;19.30;99.90
15596;DHT22;7898;48.658;9.068;2022-08-18T07:22:51;19.30;99.90
15596;DHT22;7898;48.658;9.068;2022-08-18T07:25:24;19.10;99.90
15596;DHT22;7898;48.658;9.068;2022-08-18T07:27:52;19.10;99.90
15596;DHT22;7898;48.658;9.068;2022-08-18T07:30:30;19.10;99.90
15596;DHT22;7898;48.658;9.068;2022-08-18T07:33:03;19.00;99.90
15596;DHT22;7898;48.658;9.068;2022-08-18T07:35:37;19.00;99.90
15596;DHT22;7898;48.658;9.068;2022-08-18T07:38:09;19.10;99.90
15596;DHT22;7898;48.658;9.068;2022-08-18T07:40:47;19.10;99.90
15596;DHT22;7898;48.658;9.068;2022-08-18T07:43:20;19.10;99.90
15596;DHT22;7898;48.658;9.068;2022-08-18T07:45:48;19.10;99.90
15596;DHT22;7898;48.658;9.068;2022-08-18T07:48:18;19.10;99.90
15596;DHT22;7898;48.658;9.068;2022-08-18T07:50:52;19.20;99.90
15596;DHT22;7898;48.658;9.068;2022-08-18T07:53:31;19.10;99.90
15596;DHT22;7898;48.658;9.068;2022-08-18T07:56:12;19.20;99.90
15596;DHT22;7898;48.658;9.068;2022-08-18T07:58:46;19.10;99.90
15596;DHT22;7898;48.658;9.068;2022-08-18T08:01:19;19.20;99.90
15596;DHT22;7898;48.658;9.068;2022-08-18T08:03:53;19.20;99.90
15596;DHT22;7898;48.658;9.068;2022-08-18T08:06:32;19.30;99.90
15596;DHT22;7898;48.658;9.068;2022-08-18T08:09:11;19.40;99.90
15596;DHT22;7898;48.658;9.068;2022-08-18T08:11:49;19.50;99.90
15596;DHT22;7898;48.658;9.068;2022-08-18T08:14:37;19.70;99.90
15596;DHT22;7898;48.658;9.068;2022-08-18T08:17:11;19.90;99.90
15596;DHT22;7898;48.658;9.068;2022-08-18T08:19:56;20.00;99.90
15596;DHT22;7898;48.658;9.068;2022-08-18T08:22:30;20.10;99.90
15596;DHT22;7898;48.658;9.068;2022-08-18T08:25:04;20.20;99.90
15596;DHT22;7898;48.658;9.068;2022-08-18T08:27:44;20.30;99.90
15596;DHT22;7898;48.658;9.068;2022-08-18T08:30:18;20.40;99.90
15596;DHT22;7898;48.658;9.068;2022-08-18T08:32:54;20.60;99.90
15596;DHT22;7898;48.658;9.068;2022-08-18T08:35:32;20.80;99.90
15596;DHT22;7898;48.658;9.068;2022-08-18T08:38:05;21.00;99.90
15596;DHT22;7898;48.658;9.068;2022-08-18T08:40:41;21.20;99.90
15596;DHT22;7898;48.658;9.068;2022-08-18T08:43:14;21.40;99.90
15596;DHT22;7898;48.658;9.068;2022-08-18T08:45:44;21.40;99.90
15596;DHT22;7898;48.658;9.068;2022-08-18T08:48:18;21.60;99.90
15596;DHT22;7898;48.658;9.068;2022-08-18T08:50:52;21.70;99.90
15596;DHT22;7898;48.658;9.068;2022-08-18T08:53:24;21.90;99.90
15596;DHT22;7898;48.658;9.068;2022-08-18T08:55:55;22.00;99.90
15596;DHT22;7898;48.658;9.068;2022-08-18T08:58:30;22.40;99.90
15596;DHT22;7898;48.658;9.068;2022-08-18T09:00:58;22.70;99.90
15596;DHT22;7898;48.658;9.068;2022-08-18T09:03:33;23.20;99.90
15596;DHT22;7898;48.658;9.068;2022-08-18T09:06:13;23.50;99.90
15596;DHT22;7898;48.658;9.068;2022-08-18T09:09:00;23.90;99.90
15596;DHT22;7898;48.658;9.068;2022-08-18T09:11:52;24.10;99.90
15596;DHT22;7898;48.658;9.068;2022-08-18T09:14:39;24.40;99.90
15596;DHT22;7898;48.658;9.068;2022-08-18T09:17:21;24.60;99.90
15596;DHT22;7898;48.658;9.068;2022-08-18T09:20:01;24.80;99.90
15596;DHT22;7898;48.658;9.068;2022-08-18T09:22:39;25.00;99.90
15596;DHT22;7898;48.658;9.068;2022-08-18T09:28:07;25.20;99.90
15596;DHT22;7898;48.658;9.068;2022-08-18T09:30:46;25.10;99.90
15596;DHT22;7898;48.658;9.068;2022-08-18T09:33:23;25.20;99.90
15596;DHT22;7898;48.658;9.068;2022-08-18T09:36:24;25.30;99.90
15596;DHT22;7898;48.658;9.068;2022-08-18T09:38:58;25.30;99.90
15596;DHT22;7898;48.658;9.068;2022-08-18T09:41:48;25.50;99.90
15596;DHT22;7898;48.658;9.068;2022-08-18T09:50:52;25.30;99.90
15596;DHT22;7898;48.658;9.068;2022-08-18T09:53:37;25.00;99.90
15596;DHT22;7898;48.658;9.068;2022-08-18T09:56:57;24.60;99.90
15596;DHT22;7898;48.658;9.068;2022-08-18T10:03:10;24.50;99.90
15596;DHT22;7898;48.658;9.068;2022-08-18T10:05:39;24.90;99.90
15596;DHT22;7898;48.658;9.068;2022-08-18T10:11:32;24.80;99.90
15596;DHT22;7898;48.658;9.068;2022-08-18T10:14:16;25.10;99.90
15596;DHT22;7898;48.658;9.068;2022-08-18T10:16:51;25.40;99.90
15596;DHT22;7898;48.658;9.068;2022-08-18T10:19:26;25.70;99.90
15596;DHT22;7898;48.658;9.068;2022-08-18T10:22:02;25.90;99.90
15596;DHT22;7898;48.658;9.068;2022-08-18T10:24:33;25.90;99.90
15596;DHT22;7898;48.658;9.068;2022-08-18T10:27:03;25.90;99.90
15596;DHT22;7898;48.658;9.068;2022-08-18T10:29:53;26.00;99.90
15596;DHT22;7898;48.658;9.068;2022-08-18T10:32:42;26.20;99.90
15596;DHT22;7898;48.658;9.068;2022-08-18T10:38:26;26.30;99.90
15596;DHT22;7898;48.658;9.068;2022-08-18T10:40:59;26.50;99.90
15596;DHT22;7898;48.658;9.068;2022-08-18T10:43:34;26.40;99.90
15596;DHT22;7898;48.658;9.068;2022-08-18T10:46:03;26.20;99.90
15596;DHT22;7898;48.658;9.068;2022-08-18T10:48:31;26.00;99.90
15596;DHT22;7898;48.658;9.068;2022-08-18T10:51:02;25.70;99.90
15596;DHT22;7898;48.658;9.068;2022-08-18T10:53:37;25.60;99.90
15596;DHT22;7898;48.658;9.068;2022-08-18T10:56:16;25.40;99.90
15596;DHT22;7898;48.658;9.068;2022-08-18T10:58:58;25.40;99.90
15596;DHT22;7898;48.658;9.068;2022-08-18T11:04:29;25.30;99.90
15596;DHT22;7898;48.658;9.068;2022-08-18T11:07:16;25.20;99.90
15596;DHT22;7898;48.658;9.068;2022-08-18T11:09:46;25.00;99.90
15596;DHT22;7898;48.658;9.068;2022-08-18T11:12:39;24.90;99.90
15596;DHT22;7898;48.658;9.068;2022-08-18T11:15:16;24.80;99.90
15596;DHT22;7898;48.658;9.068;2022-08-18T11:17:54;24.70;99.90
15596;DHT22;7898;48.658;9.068;2022-08-18T11:20:28;24.60;99.90
15596;DHT22;7898;48.658;9.068;2022-08-18T11:22:58;24.50;99.90
15596;DHT22;7898;48.658;9.068;2022-08-18T11:25:28;24.50;99.90
15596;DHT22;7898;48.658;9.068;2022-08-18T11:27:58;24.50;99.90
15596;DHT22;7898;48.658;9.068;2022-08-18T11:30:28;24.40;99.90
15596;DHT22;7898;48.658;9.068;2022-08-18T11:32:56;24.50;99.90
15596;DHT22;7898;48.658;9.068;2022-08-18T11:35:28;24.50;99.90
15596;DHT22;7898;48.658;9.068;2022-08-18T11:37:58;24.50;99.90
15596;DHT22;7898;48.658;9.068;2022-08-18T11:40:32;24.60;99.90
15596;DHT22;7898;48.658;9.068;2022-08-18T11:43:09;24.80;99.90
15596;DHT22;7898;48.658;9.068;2022-08-18T11:45:49;24.90;99.90
15596;DHT22;7898;48.658;9.068;2022-08-18T11:48:20;25.20;99.90
15596;DHT22;7898;48.658;9.068;2022-08-18T11:50:59;25.50;99.90
15596;DHT22;7898;48.658;9.068;2022-08-18T11:53:38;25.80;99.90
15596;DHT22;7898;48.658;9.068;2022-08-18T11:56:16;25.70;99.90
15596;DHT22;7898;48.658;9.068;2022-08-18T11:58:46;25.70;99.90
15596;DHT22;7898;48.658;9.068;2022-08-18T12:01:32;25.80;99.90
15596;DHT22;7898;48.658;9.068;2022-08-18T12:04:09;25.80;99.90
15596;DHT22;7898;48.658;9.068;2022-08-18T12:06:48;25.80;99.90
15596;DHT22;7898;48.658;9.068;2022-08-18T12:09:20;25.80;99.90
15596;DHT22;7898;48.658;9.068;2022-08-18T12:11:50;25.80;99.90
15596;DHT22;7898;48.658;9.068;2022-08-18T12:14:22;25.80;99.90
15596;DHT22;7898;48.658;9.068;2022-08-18T12:16:50;25.80;99.90
15596;DHT22;7898;48.658;9.068;2022-08-18T12:19:18;25.80;99.90
15596;DHT22;7898;48.658;9.068;2022-08-18T12:21:51;25.90;99.90
15596;DHT22;7898;48.658;9.068;2022-08-18T12:24:21;25.80;99.90
15596;DHT22;7898;48.658;9.068;2022-08-18T12:26:49;25.80;99.90
15596;DHT22;7898;48.658;9.068;2022-08-18T12:29:16;25.90;99.90
15596;DHT22;7898;48.658;9.068;2022-08-18T12:31:45;25.90;99.90
15596;DHT22;7898;48.658;9.068;2022-08-18T12:34:13;26.20;99.90
15596;DHT22;7898;48.658;9.068;2022-08-18T12:36:40;26.20;99.90
15596;DHT22;7898;48.658;9.068;2022-08-18T12:39:07;26.20;99.90
15596;DHT22;7898;48.658;9.068;2022-08-18T12:41:33;26.20;99.90
15596;DHT22;7898;48.658;9.068;2022-08-18T12:44:00;26.10;99.90
15596;DHT22;7898;48.658;9.068;2022-08-18T12:46:28;25.90;99.90
15596;DHT22;7898;48.658;9.068;2022-08-18T12:48:57;25.90;99.90
15596;DHT22;7898;48.658;9.068;2022-08-18T12:51:24;25.80;99.90
15596;DHT22;7898;48.658;9.068;2022-08-18T12:53:50;25.70;99.90
15596;DHT22;7898;48.658;9.068;2022-08-18T12:56:21;25.60;99.90
15596;DHT22;7898;48.658;9.068;2022-08-18T12:58:49;25.60;99.90
15596;DHT22;7898;48.658;9.068;2022-08-18T13:01:16;25.60;99.90
15596;DHT22;7898;48.658;9.068;2022-08-18T13:03:44;25.60;99.90
15596;DHT22;7898;48.658;9.068;2022-08-18T13:06:13;25.70;99.90
15596;DHT22;7898;48.658;9.068;2022-08-18T13:08:40;25.80;99.90
15596;DHT22;7898;48.658;9.068;2022-08-18T13:11:07;26.00;99.90
15596;DHT22;7898;48.658;9.068;2022-08-18T13:13:36;26.20;99.90
15596;DHT22;7898;48.658;9.068;2022-08-18T13:16:04;26.20;99.90
15596;DHT22;7898;48.658;9.068;2022-08-18T13:18:32;26.10;99.90
15596;DHT22;7898;48.658;9.068;2022-08-18T13:21:00;26.20;99.90
15596;DHT22;7898;48.658;9.068;2022-08-18T13:23:29;26.30;99.90
15596;DHT22;7898;48.658;9.068;2022-08-18T13:25:59;26.50;99.90
15596;DHT22;7898;48.658;9.068;2022-08-18T13:28:26;26.70;99.90
15596;DHT22;7898;48.658;9.068;2022-08-18T13:30:53;26.90;99.90
15596;DHT22;7898;48.658;9.068;2022-08-18T13:33:20;27.10;99.90
15596;DHT22;7898;48.658;9.068;2022-08-18T13:35:48;27.20;99.90
15596;DHT22;7898;48.658;9.068;2022-08-18T13:38:16;27.00;99.90
15596;DHT22;7898;48.658;9.068;2022-08-18T13:40:48;27.00;99.90
15596;DHT22;7898;48.658;9.068;2022-08-18T13:43:16;27.00;99.90
15596;DHT22;7898;48.658;9.068;2022-08-18T13:45:45;26.90;99.90
15596;DHT22;7898;48.658;9.068;2022-08-18T13:48:14;26.90;99.90
15596;DHT22;7898;48.658;9.068;2022-08-18T13:50:41;27.00;99.90
15596;DHT22;7898;48.658;9.068;2022-08-18T13:53:12;26.90;99.90
15596;DHT22;7898;48.658;9.068;2022-08-18T13:55:40;27.00;99.90
15596;DHT22;7898;48.658;9.068;2022-08-18T13:58:09;26.90;99.90
15596;DHT22;7898;48.658;9.068;2022-08-18T14:00:37;26.80;99.90
15596;DHT22;7898;48.658;9.068;2022-08-18T14:03:05;26.70;99.90
15596;DHT22;7898;48.658;9.068;2022-08-18T14:05:33;26.60;99.90
15596;DHT22;7898;48.658;9.068;2022-08-18T14:08:00;26.40;99.90
15596;DHT22;7898;48.658;9.068;2022-08-18T14:10:27;26.40;99.90
15596;DHT22;7898;48.658;9.068;2022-08-18T14:12:56;26.40;99.90
15596;DHT22;7898;48.658;9.068;2022-08-18T14:15:25;26.50;99.90
15596;DHT22;7898;48.658;9.068;2022-08-18T14:17:52;26.40;99.90
15596;DHT22;7898;48.658;9.068;2022-08-18T14:20:19;26.40;99.90
15596;DHT22;7898;48.658;9.068;2022-08-18T14:23:04;26.40;99.90
15596;DHT22;7898;48.658;9.068;2022-08-18T14:25:48;26.30;99.90
15596;DHT22;7898;48.658;9.068;2022-08-18T14:28:33;26.20;99.90
15596;DHT22;7898;48.658;9.068;2022-08-18T14:31:02;26.10;99.90
15596;DHT22;7898;48.658;9.068;2022-08-18T14:33:30;26.10;99.90
15596;DHT22;7898;48.658;9.068;2022-08-18T14:35:57;26.00;99.90
15596;DHT22;7898;48.658;9.068;2022-08-18T14:38:24;25.90;99.90
15596;DHT22;7898;48.658;9.068;2022-08-18T14:40:51;25.80;99.90
15596;DHT22;7898;48.658;9.068;2022-08-18T14:43:19;25.80;99.90
15596;DHT22;7898;48.658;9.068;2022-08-18T14:45:48;25.70;99.90
15596;DHT22;7898;48.658;9.068;2022-08-18T14:48:18;25.90;99.90
15596;DHT22;7898;48.658;9.068;2022-08-18T14:50:48;25.60;99.90
15596;DHT22;7898;48.658;9.068;2022-08-18T14:53:17;25.60;99.90
15596;DHT22;7898;48.658;9.068;2022-08-18T14:55:45;25.50;99.90
15596;DHT22;7898;48.658;9.068;2022-08-18T14:58:12;25.60;99.90
15596;DHT22;7898;48.658;9.068;2022-08-18T15:00:41;25.60;99.90
15596;DHT22;7898;48.658;9.068;2022-08-18T15:03:07;25.50;99.90
15596;DHT22;7898;48.658;9.068;2022-08-18T15:05:37;25.40;99.90
15596;DHT22;7898;48.658;9.068;2022-08-18T15:08:04;25.40;99.90
15596;DHT22;7898;48.658;9.068;2022-08-18T15:10:31;25.40;99.90
15596;DHT22;7898;48.658;9.068;2022-08-18T15:12:58;25.30;99.90
15596;DHT22;7898;48.658;9.068;2022-08-18T15:15:26;25.20;99.90
15596;DHT22;7898;48.658;9.068;2022-08-18T15:17:53;25.20;99.90
15596;DHT22;7898;48.658;9.068;2022-08-18T15:20:22;25.20;99.90
15596;DHT22;7898;48.658;9.068;2022-08-18T15:22:51;25.20;99.90
15596;DHT22;7898;48.658;9.068;2022-08-18T15:25:35;25.10;99.90
15596;DHT22;7898;48.658;9.068;2022-08-18T15:28:10;25.10;99.90
15596;DHT22;7898;48.658;9.068;2022-08-18T15:30:42;25.20;99.90
15596;DHT22;7898;48.658;9.068;2022-08-18T15:33:09;25.10;99.90
15596;DHT22;7898;48.658;9.068;2022-08-18T15:35:38;25.00;99.90
15596;DHT22;7898;48.658;9.068;2022-08-18T15:38:08;25.00;99.90
15596;DHT22;7898;48.658;9.068;2022-08-18T15:40:38;24.90;99.90
15596;DHT22;7898;48.658;9.068;2022-08-18T15:43:12;24.90;99.90
15596;DHT22;7898;48.658;9.068;2022-08-18T15:45:40;24.90;99.90
15596;DHT22;7898;48.658;9.068;2022-08-18T15:48:12;24.90;99.90
15596;DHT22;7898;48.658;9.068;2022-08-18T15:50:39;24.90;99.90
15596;DHT22;7898;48.658;9.068;2022-08-18T15:53:10;25.00;99.90
15596;DHT22;7898;48.658;9.068;2022-08-18T15:55:38;25.10;99.90
15596;DHT22;7898;48.658;9.068;2022-08-18T15:58:06;25.20;99.90
15596;DHT22;7898;48.658;9.068;2022-08-18T16:00:33;25.20;99.90
15596;DHT22;7898;48.658;9.068;2022-08-18T16:03:02;25.30;99.90
15596;DHT22;7898;48.658;9.068;2022-08-18T16:05:31;25.40;99.90
15596;DHT22;7898;48.658;9.068;2022-08-18T16:07:59;25.40;99.90
15596;DHT22;7898;48.658;9.068;2022-08-18T16:10:31;25.30;99.90
15596;DHT22;7898;48.658;9.068;2022-08-18T16:12:59;25.20;99.90
15596;DHT22;7898;48.658;9.068;2022-08-18T16:15:31;25.20;99.90
15596;DHT22;7898;48.658;9.068;2022-08-18T16:17:59;25.20;99.90
15596;DHT22;7898;48.658;9.068;2022-08-18T16:20:26;25.20;99.90
15596;DHT22;7898;48.658;9.068;2022-08-18T16:22:54;25.20;99.90
15596;DHT22;7898;48.658;9.068;2022-08-18T16:25:22;25.10;99.90
15596;DHT22;7898;48.658;9.068;2022-08-18T16:27:51;25.00;99.90
15596;DHT22;7898;48.658;9.068;2022-08-18T16:30:22;25.00;99.90
15596;DHT22;7898;48.658;9.068;2022-08-18T16:32:49;24.90;99.90
15596;DHT22;7898;48.658;9.068;2022-08-18T16:35:17;24.90;99.90